Time;durP1;ratioP1;P1;durP2;ratioP2;P2;SDS_P1;SDS_P2;PMS_P1;PMS_P2;Temp;Humidity;BMP_temperature;BMP_pressure;BME280_temperature;BME280_humidity;BME280_pressure;Samples;Min_cycle;Max_cycle;Signal;HPM_P1;HPM_P2
2022/01/30 00:02:21;;;;;;;24.13;5.57;;;;;;;5.54;75.89;102548.34;5031118;28;20029;-76
2022/01/30 00:04:46;;;;;;;29.63;5.53;;;;;;;5.52;76.01;102552.81;5035580;28;20348;-76
2022/01/30 00:07:12;;;;;;;27.95;6.22;;;;;;;5.51;75.96;102554.63;5029767;28;20033;-76
2022/01/30 00:09:37;;;;;;;23.75;6.15;;;;;;;5.48;75.99;102570.72;5027693;28;20045;-76
2022/01/30 00:12:04;;;;;;;21.50;4.97;;;;;;;5.47;75.58;102568.94;5039831;28;20033;-76
2022/01/30 00:14:33;;;;;;;25.13;6.03;;;;;;;5.44;75.80;102569.03;5029708;28;20048;-76
2022/01/30 00:17:24;;;;;;;27.00;5.83;;;;;;;5.42;75.83;102570.88;5036380;28;20512;-76
2022/01/30 00:19:51;;;;;;;26.23;6.57;;;;;;;5.39;75.87;102570.94;5037795;28;20069;-76
2022/01/30 00:22:24;;;;;;;29.42;5.75;;;;;;;5.35;75.79;102569.25;5042725;28;20032;-76
2022/01/30 00:24:55;;;;;;;25.13;5.75;;;;;;;5.33;76.02;102568.41;5035557;28;20036;-76
2022/01/30 00:27:28;;;;;;;24.75;5.93;;;;;;;5.32;76.13;102575.53;5033996;28;20129;-76
2022/01/30 00:29:53;;;;;;;32.35;6.65;;;;;;;5.29;75.98;102574.75;5026874;28;20040;-76
2022/01/30 00:32:19;;;;;;;25.15;5.70;;;;;;;5.22;75.79;102580.19;5032068;28;20029;-76
2022/01/30 00:34:44;;;;;;;21.67;5.90;;;;;;;5.22;75.70;102581.97;5026113;28;20132;-76
2022/01/30 00:37:09;;;;;;;22.98;5.60;;;;;;;5.19;75.80;102590.91;5042741;28;20029;-76
2022/01/30 00:39:35;;;;;;;25.98;5.72;;;;;;;5.20;76.18;102591.81;5026909;28;20052;-76
2022/01/30 00:42:00;;;;;;;27.77;6.43;;;;;;;5.20;75.91;102584.69;5025840;28;20037;-76
2022/01/30 00:44:25;;;;;;;26.70;6.45;;;;;;;5.20;75.49;102584.69;5030956;28;20047;-76
2022/01/30 00:46:51;;;;;;;20.80;6.22;;;;;;;5.18;75.96;102583.84;5047602;28;20033;-77
2022/01/30 00:49:16;;;;;;;23.85;5.15;;;;;;;5.18;75.97;102583.84;5026777;28;20091;-76
2022/01/30 00:51:42;;;;;;;23.38;5.72;;;;;;;5.18;76.10;102585.63;5025855;28;20037;-76
2022/01/30 00:54:07;;;;;;;27.85;5.97;;;;;;;5.13;76.17;102590.19;5030868;28;20025;-76
2022/01/30 00:56:32;;;;;;;27.08;5.72;;;;;;;5.04;76.46;102585.94;5044005;28;20365;-76
2022/01/30 00:58:58;;;;;;;21.23;6.45;;;;;;;5.00;76.71;102589.59;5027746;28;20112;-76
2022/01/30 01:01:23;;;;;;;23.20;6.40;;;;;;;4.94;76.75;102587.94;5033283;28;20405;-76
2022/01/30 01:03:48;;;;;;;29.65;6.15;;;;;;;4.92;76.84;102592.44;5043308;28;20060;-76
2022/01/30 01:06:14;;;;;;;27.77;6.50;;;;;;;4.93;76.81;102598.63;5031426;28;20085;-76
2022/01/30 01:11:52;;;;;;;26.58;6.10;;;;;;;4.92;77.07;102597.75;5040101;28;20481;-76
2022/01/30 01:24:58;;;;;;;24.27;6.20;;;;;;;4.89;77.49;102609.34;5029671;28;20547;-76
2022/01/30 01:27:23;;;;;;;34.40;6.93;;;;;;;4.88;77.86;102606.72;5033671;28;20152;-76
2022/01/30 01:29:48;;;;;;;28.13;6.00;;;;;;;4.83;77.58;102608.59;5024950;28;20026;-76
2022/01/30 01:32:14;;;;;;;24.50;6.55;;;;;;;4.80;77.76;102612.22;5029437;28;20051;-76
2022/01/30 01:34:40;;;;;;;25.55;5.85;;;;;;;4.80;77.91;102617.53;5033671;28;20091;-76
2022/01/30 01:37:11;;;;;;;24.30;5.10;;;;;;;4.83;78.00;102616.56;5038482;28;20508;-76
2022/01/30 01:39:36;;;;;;;20.52;5.88;;;;;;;4.83;77.77;102619.25;5047716;28;20086;-76
2022/01/30 01:42:02;;;;;;;32.10;6.68;;;;;;;4.83;77.78;102620.16;5028115;28;20473;-76
2022/01/30 01:45:01;;;;;;;25.73;5.60;;;;;;;4.80;77.70;102625.53;5027743;28;20505;-76
2022/01/30 01:47:22;;;;;;;21.45;4.85;;;;;;;4.73;77.56;102627.44;5044584;28;20060;-76
2022/01/30 01:49:50;;;;;;;17.55;4.93;;;;;;;4.72;78.09;102632.78;5034149;28;20512;-76
2022/01/30 01:54:42;;;;;;;17.55;5.00;;;;;;;4.59;78.31;102628.63;5041699;28;20036;-76
2022/01/30 01:57:07;;;;;;;20.90;4.63;;;;;;;4.54;78.42;102626.06;5037972;28;20038;-76
2022/01/30 01:59:32;;;;;;;26.15;5.88;;;;;;;4.51;78.25;102634.97;5043226;28;20037;-76
2022/01/30 02:02:00;;;;;;;23.75;5.75;;;;;;;4.49;78.70;102643.88;5038813;28;20558;-74
2022/01/30 02:04:26;;;;;;;28.65;6.10;;;;;;;4.44;78.98;102630.66;5020016;28;20099;-74
2022/01/30 02:07:08;;;;;;;22.20;5.60;;;;;;;4.45;79.03;102624.44;5041645;28;20477;-74
2022/01/30 02:09:34;;;;;;;27.90;5.82;;;;;;;4.45;78.99;102624.44;5018253;28;20044;-74
2022/01/30 02:12:01;;;;;;;25.25;6.45;;;;;;;4.42;79.16;102618.28;5038210;28;20032;-74
2022/01/30 02:14:40;;;;;;;25.85;5.57;;;;;;;4.43;79.41;102610.25;5019537;28;20056;-74
2022/01/30 02:25:38;;;;;;;23.65;5.95;;;;;;;4.49;79.83;102599.50;5011990;28;20107;-74
2022/01/30 02:28:09;;;;;;;29.33;5.82;;;;;;;4.50;79.95;102609.25;5041274;28;20056;-74
2022/01/30 02:30:38;;;;;;;22.05;5.63;;;;;;;4.51;79.63;102612.78;5029479;28;20033;-74
2022/01/30 02:33:03;;;;;;;26.25;6.07;;;;;;;4.51;79.71;102613.66;5032446;28;20018;-74
2022/01/30 02:35:28;;;;;;;24.10;5.30;;;;;;;4.52;79.84;102615.44;5026519;28;20178;-74
2022/01/30 02:37:57;;;;;;;30.30;6.10;;;;;;;4.49;79.81;102610.13;5028383;28;20413;-74
2022/01/30 02:40:22;;;;;;;22.02;5.22;;;;;;;4.41;79.93;102612.09;5045228;28;20491;-74
2022/01/30 02:42:51;;;;;;;26.05;5.00;;;;;;;4.34;79.47;102615.78;5040106;28;20025;-74
2022/01/30 02:45:18;;;;;;;22.42;5.15;;;;;;;4.26;80.12;102602.63;5030908;28;20152;-74
2022/01/30 02:50:34;;;;;;;25.58;5.53;;;;;;;4.18;80.04;102616.03;5031015;28;20405;-74
2022/01/30 02:53:03;;;;;;;26.13;5.38;;;;;;;4.11;80.25;102609.06;5023703;28;20116;-74
2022/01/30 02:55:28;;;;;;;24.70;5.13;;;;;;;4.04;80.61;102612.75;5033806;28;20033;-74
2022/01/30 02:57:54;;;;;;;23.55;5.53;;;;;;;3.97;80.31;102613.78;5026099;28;20026;-74
2022/01/30 03:00:20;;;;;;;23.08;5.00;;;;;;;3.92;80.52;102623.59;5036947;28;20140;-74
2022/01/30 03:02:45;;;;;;;25.95;5.30;;;;;;;3.89;80.51;102621.00;5042262;28;20096;-74
2022/01/30 03:05:10;;;;;;;21.58;4.72;;;;;;;3.84;80.87;102629.94;5027371;28;20030;-74
2022/01/30 03:07:35;;;;;;;28.52;5.43;;;;;;;3.81;80.66;102626.47;5030887;28;20051;-74
2022/01/30 03:10:03;;;;;;;26.30;6.38;;;;;;;3.76;81.10;102631.81;5037386;28;20542;-74
2022/01/30 03:12:28;;;;;;;26.75;5.78;;;;;;;3.78;80.85;102637.16;5043116;28;20032;-74
2022/01/30 03:14:54;;;;;;;25.67;5.43;;;;;;;3.76;81.66;102637.16;5013505;28;20049;-74
2022/01/30 03:17:19;;;;;;;32.63;6.35;;;;;;;3.77;81.61;102638.91;5041635;28;20055;-74
2022/01/30 03:19:44;;;;;;;24.00;5.38;;;;;;;3.79;81.62;102645.09;5033556;28;20120;-74
2022/01/30 03:22:10;;;;;;;18.38;5.43;;;;;;;3.77;81.48;102644.22;5033679;28;20445;-74
2022/01/30 03:24:37;;;;;;;22.17;4.57;;;;;;;3.81;82.10;102653.91;5031668;28;20033;-74
2022/01/30 03:27:04;;;;;;;28.35;5.55;;;;;;;3.88;82.30;102649.41;5037569;28;20049;-74
2022/01/30 03:29:29;;;;;;;32.85;6.10;;;;;;;3.96;82.15;102654.59;5029640;28;20037;-73
2022/01/30 03:31:55;;;;;;;27.23;6.28;;;;;;;4.03;81.67;102658.91;5047510;28;20132;-73
2022/01/30 03:34:20;;;;;;;26.48;5.70;;;;;;;4.09;82.07;102666.78;5056909;28;20135;-73
2022/01/30 03:36:45;;;;;;;29.60;6.03;;;;;;;4.14;82.37;102667.59;5030937;28;20143;-73
2022/01/30 03:39:11;;;;;;;24.92;6.05;;;;;;;4.20;81.77;102670.13;5033413;28;20035;-73
2022/01/30 03:41:36;;;;;;;24.60;5.40;;;;;;;4.26;81.74;102681.56;5040959;28;20033;-73
2022/01/30 03:44:01;;;;;;;19.90;5.18;;;;;;;4.29;81.68;102681.50;5034409;28;20029;-73
2022/01/30 03:46:27;;;;;;;22.50;5.10;;;;;;;4.31;81.71;102679.72;5033942;28;20097;-73
2022/01/30 03:48:52;;;;;;;22.77;5.25;;;;;;;4.34;81.88;102696.50;5040718;28;20037;-73
2022/01/30 03:51:17;;;;;;;28.30;5.50;;;;;;;4.35;81.79;102697.41;5030971;28;20026;-73
2022/01/30 03:53:43;;;;;;;20.98;5.35;;;;;;;4.37;81.91;102701.78;5028931;28;20436;-73
2022/01/30 03:56:08;;;;;;;23.13;5.50;;;;;;;4.38;81.73;102700.00;5041253;28;20021;-73
2022/01/30 03:58:34;;;;;;;23.17;5.47;;;;;;;4.40;81.69;102698.19;5035764;28;20021;-73
2022/01/30 04:01:00;;;;;;;24.85;5.38;;;;;;;4.41;81.39;102699.94;5031066;28;20029;-73
2022/01/30 04:03:25;;;;;;;25.35;5.95;;;;;;;4.42;81.32;102701.69;5029995;28;20063;-74
2022/01/30 04:05:51;;;;;;;30.67;5.93;;;;;;;4.43;81.79;102705.25;5030042;28;20047;-74
2022/01/30 04:08:17;;;;;;;27.88;5.65;;;;;;;4.46;81.01;102706.06;5046890;28;20457;-74
2022/01/30 04:10:43;;;;;;;25.15;6.35;;;;;;;4.50;81.15;102702.44;5036993;28;20036;-74
2022/01/30 04:13:08;;;;;;;20.13;4.22;;;;;;;4.52;81.28;102713.97;5034851;28;20045;-74
2022/01/30 04:15:34;;;;;;;19.40;4.65;;;;;;;4.53;81.15;102713.03;5048191;28;20047;-74
2022/01/30 04:18:01;;;;;;;23.33;4.60;;;;;;;4.55;80.72;102721.88;5048502;28;20520;-74
2022/01/30 04:20:27;;;;;;;21.77;5.53;;;;;;;4.60;80.97;102718.22;5033903;28;20106;-74
2022/01/30 04:22:52;;;;;;;27.42;6.15;;;;;;;4.62;80.80;102709.31;5049619;28;20078;-74
2022/01/30 04:25:18;;;;;;;21.38;4.32;;;;;;;4.64;80.77;102717.28;5029976;28;20025;-74
2022/01/30 04:27:43;;;;;;;26.52;5.00;;;;;;;4.68;79.97;102721.66;5031649;28;20036;-73
2022/01/30 04:30:10;;;;;;;22.23;5.18;;;;;;;4.68;80.03;102717.19;5044210;28;20033;-73
2022/01/30 04:32:41;;;;;;;24.20;6.05;;;;;;;4.70;80.02;102730.47;5046379;28;20032;-73
2022/01/30 04:35:12;;;;;;;23.25;5.40;;;;;;;4.72;80.17;102726.88;5046149;28;20112;-73
2022/01/30 04:37:54;;;;;;;23.77;5.82;;;;;;;4.73;79.62;102726.00;5046226;28;20116;-73
2022/01/30 04:59:51;;;;;;;21.73;4.95;;;;;;;4.77;78.40;102752.56;5028407;28;20068;-73
2022/01/30 05:02:42;;;;;;;22.48;4.68;;;;;;;4.74;79.13;102753.50;5030878;28;20137;-73
2022/01/30 05:05:35;;;;;;;22.48;5.03;;;;;;;4.63;78.88;102748.38;5032967;28;20086;-74
2022/01/30 05:07:56;;;;;;;26.45;6.47;;;;;;;4.57;78.80;102755.56;5038335;28;20033;-74
2022/01/30 05:10:21;;;;;;;23.67;5.25;;;;;;;4.50;78.79;102760.16;5027653;28;20061;-74
2022/01/30 05:12:53;;;;;;;23.63;4.78;;;;;;;4.46;79.16;102753.09;5022910;28;20522;-74
2022/01/30 05:15:20;;;;;;;29.88;5.18;;;;;;;4.42;78.85;102770.91;5018129;28;20061;-74
2022/01/30 05:17:46;;;;;;;24.65;5.55;;;;;;;4.40;79.01;102761.22;5029979;28;20101;-74
2022/01/30 05:20:12;;;;;;;27.75;5.75;;;;;;;4.31;79.03;102771.09;5037528;28;20033;-74
2022/01/30 05:22:38;;;;;;;19.38;4.90;;;;;;;4.30;79.36;102779.09;5025268;28;20029;-74
2022/01/30 05:25:04;;;;;;;21.50;4.68;;;;;;;4.22;79.29;102765.91;5025397;28;20036;-74
2022/01/30 05:27:29;;;;;;;17.30;4.53;;;;;;;4.19;79.92;102766.84;5026565;28;20028;-74
2022/01/30 05:29:55;;;;;;;28.95;5.45;;;;;;;4.13;79.78;102761.63;5036466;28;20052;-74
2022/01/30 05:32:21;;;;;;;22.67;5.38;;;;;;;4.14;79.57;102766.06;5008812;28;20033;-74
2022/01/30 05:34:46;;;;;;;24.73;4.65;;;;;;;4.09;79.74;102769.69;5026195;28;20052;-74
2022/01/30 05:37:18;;;;;;;19.75;3.70;;;;;;;4.03;79.94;102763.53;5028797;28;20386;-74
2022/01/30 05:39:44;;;;;;;20.98;4.15;;;;;;;4.02;79.94;102767.09;5027043;28;20457;-74
2022/01/30 05:42:10;;;;;;;23.27;5.22;;;;;;;3.98;79.64;102769.81;5027277;28;20036;-74
2022/01/30 05:47:12;;;;;;;25.00;4.95;;;;;;;3.94;79.42;102773.41;5027372;28;20037;-74
2022/01/30 05:49:38;;;;;;;23.88;4.65;;;;;;;3.88;79.54;102774.41;5026910;28;20459;-74
2022/01/30 05:52:04;;;;;;;20.50;3.65;;;;;;;3.87;79.43;102779.75;5026055;28;20037;-74
2022/01/30 05:54:29;;;;;;;25.23;4.93;;;;;;;3.83;79.38;102781.56;5024647;28;20072;-74
2022/01/30 05:56:54;;;;;;;26.60;4.93;;;;;;;3.82;79.24;102779.78;5026226;28;20037;-74
2022/01/30 05:59:20;;;;;;;23.48;5.13;;;;;;;3.80;78.76;102785.13;5025859;28;20107;-74
2022/01/30 06:01:45;;;;;;;29.17;4.38;;;;;;;3.80;79.29;102789.59;5033838;28;20044;-74
2022/01/30 06:04:10;;;;;;;22.35;4.50;;;;;;;3.78;79.30;102792.28;5036011;28;20511;-74
2022/01/30 06:06:35;;;;;;;23.30;4.30;;;;;;;3.78;79.18;102786.09;5027522;28;20033;-74
2022/01/30 06:09:18;;;;;;;17.67;3.88;;;;;;;3.72;79.01;102787.03;5027012;28;20103;-74
2022/01/30 06:11:44;;;;;;;27.40;4.50;;;;;;;3.71;79.25;102795.91;5041474;28;20151;-75
2022/01/30 06:14:10;;;;;;;23.77;4.20;;;;;;;3.65;79.31;102790.69;5038398;28;20064;-74
2022/01/30 06:16:35;;;;;;;26.50;5.25;;;;;;;3.59;79.30;102799.63;5031376;28;20028;-74
2022/01/30 06:19:02;;;;;;;14.60;3.15;;;;;;;3.57;79.58;102797.88;5028177;28;20029;-74
2022/01/30 06:21:28;;;;;;;19.17;4.32;;;;;;;3.61;80.41;102794.28;5039582;28;20029;-74
2022/01/30 06:23:54;;;;;;;19.80;4.32;;;;;;;3.66;79.90;102792.41;5045306;28;20025;-74
2022/01/30 06:26:19;;;;;;;20.25;4.05;;;;;;;3.74;80.00;102795.00;5028651;28;20130;-74
2022/01/30 06:28:44;;;;;;;20.55;4.45;;;;;;;3.80;79.71;102790.47;5036188;28;20029;-74
2022/01/30 06:31:09;;;;;;;21.45;4.70;;;;;;;3.88;79.58;102787.72;5039738;28;20104;-74
2022/01/30 06:33:35;;;;;;;22.60;4.05;;;;;;;3.98;78.40;102789.34;5033816;28;20036;-74
2022/01/30 06:36:00;;;;;;;25.67;4.72;;;;;;;4.06;77.86;102786.56;5030719;28;20508;-74
2022/01/30 06:38:25;;;;;;;18.13;3.78;;;;;;;4.15;77.83;102790.88;5031079;28;20029;-74
2022/01/30 06:40:51;;;;;;;23.63;4.15;;;;;;;4.18;77.86;102794.34;5032709;28;20037;-74
2022/01/30 06:43:16;;;;;;;21.98;3.95;;;;;;;4.24;77.56;102797.84;5041330;28;20029;-74
2022/01/30 06:45:42;;;;;;;18.05;3.42;;;;;;;4.27;77.87;102798.66;5032559;28;20506;-74
2022/01/30 06:48:08;;;;;;;24.13;3.88;;;;;;;4.29;77.51;102802.19;5032049;28;20025;-74
2022/01/30 06:50:33;;;;;;;16.75;3.83;;;;;;;4.31;77.95;102802.16;5035085;28;20056;-74
2022/01/30 06:52:58;;;;;;;23.98;4.72;;;;;;;4.32;78.03;102812.78;5029709;28;20021;-74
2022/01/30 06:55:24;;;;;;;20.42;3.72;;;;;;;4.33;78.21;102811.88;5031781;28;20033;-74
2022/01/30 06:57:49;;;;;;;17.23;3.88;;;;;;;4.29;78.66;102815.50;5028257;28;20486;-74
2022/01/30 07:00:15;;;;;;;21.17;4.38;;;;;;;4.29;78.61;102819.91;5039664;28;20048;-74
2022/01/30 07:02:40;;;;;;;16.25;4.10;;;;;;;4.28;78.43;102818.19;5036609;28;20021;-74
2022/01/30 07:05:06;;;;;;;21.02;4.32;;;;;;;4.20;78.70;102815.63;5028033;28;20061;-74
2022/01/30 07:07:31;;;;;;;20.48;4.13;;;;;;;4.15;78.34;102815.69;5021477;28;20493;-74
2022/01/30 07:09:56;;;;;;;20.90;4.63;;;;;;;4.14;78.64;102821.94;5046403;28;20122;-74
2022/01/30 07:12:22;;;;;;;19.83;3.45;;;;;;;4.10;78.44;102833.53;5043653;28;20195;-74
2022/01/30 07:14:48;;;;;;;22.42;4.22;;;;;;;4.06;78.45;102837.13;5035510;28;20143;-74
2022/01/30 07:17:13;;;;;;;15.98;3.10;;;;;;;4.02;78.55;102836.25;5038191;28;20029;-74
2022/01/30 07:19:38;;;;;;;20.35;3.67;;;;;;;4.01;78.39;102841.59;5046107;28;20035;-73
2022/01/30 07:22:04;;;;;;;22.23;4.82;;;;;;;3.96;78.52;102838.16;5027954;28;20022;-73
2022/01/30 07:24:29;;;;;;;25.15;5.18;;;;;;;3.91;78.60;102837.31;5046425;28;20128;-73
2022/01/30 07:26:54;;;;;;;25.90;5.00;;;;;;;3.88;78.42;102842.69;5038727;28;20101;-73
2022/01/30 07:29:19;;;;;;;17.27;3.50;;;;;;;3.89;78.18;102847.09;5039477;28;20088;-73
2022/01/30 07:31:45;;;;;;;20.33;4.38;;;;;;;3.87;78.22;102839.16;5028643;28;20132;-75
2022/01/30 07:34:10;;;;;;;23.38;4.53;;;;;;;3.84;78.01;102840.06;5028451;28;20067;-76
2022/01/30 07:36:37;;;;;;;24.85;4.40;;;;;;;3.82;78.05;102846.28;5050113;28;20056;-76
2022/01/30 07:39:08;;;;;;;24.63;5.05;;;;;;;3.80;78.24;102859.63;5033169;28;20068;-76
2022/01/30 07:41:33;;;;;;;19.80;4.20;;;;;;;3.76;78.49;102862.34;5027678;28;20029;-76
2022/01/30 07:44:02;;;;;;;20.20;4.63;;;;;;;3.74;78.59;102878.31;5026728;28;20453;-76
2022/01/30 07:46:28;;;;;;;23.67;4.60;;;;;;;3.71;78.54;102881.00;5028650;28;20030;-76
2022/01/30 07:48:54;;;;;;;24.85;4.63;;;;;;;3.71;78.65;102885.47;5024280;28;20277;-76
2022/01/30 07:51:19;;;;;;;20.65;4.65;;;;;;;3.68;78.91;102883.72;5028552;28;20025;-76
2022/01/30 07:53:45;;;;;;;19.55;3.88;;;;;;;3.67;78.65;102880.19;5028755;28;20108;-76
2022/01/30 07:56:10;;;;;;;17.73;4.55;;;;;;;3.66;79.21;102877.50;5027572;28;20033;-76
2022/01/30 07:58:35;;;;;;;24.77;4.82;;;;;;;3.66;79.18;102877.50;5027132;28;20025;-76
2022/01/30 08:01:00;;;;;;;24.58;4.13;;;;;;;3.62;78.60;102870.50;5028211;28;20113;-75
2022/01/30 08:03:26;;;;;;;23.50;4.38;;;;;;;3.63;79.01;102878.44;5026417;28;20056;-76
2022/01/30 08:05:51;;;;;;;21.90;3.97;;;;;;;3.63;79.28;102875.78;5029072;28;20196;-76
2022/01/30 08:08:16;;;;;;;19.67;4.53;;;;;;;3.66;78.84;102873.09;5027752;28;20018;-76
2022/01/30 08:10:42;;;;;;;16.25;3.70;;;;;;;3.67;78.81;102877.53;5027577;28;20053;-76
2022/01/30 08:13:07;;;;;;;18.08;4.43;;;;;;;3.67;78.74;102884.59;5028161;28;20083;-76
2022/01/30 08:15:32;;;;;;;21.90;4.75;;;;;;;3.70;78.16;102881.91;5027686;28;20022;-76
2022/01/30 08:17:58;;;;;;;25.85;5.25;;;;;;;3.73;78.22;102879.19;5028366;28;20145;-76
2022/01/30 08:20:26;;;;;;;18.00;3.63;;;;;;;3.76;77.96;102889.81;5027119;28;20033;-76
2022/01/30 08:22:52;;;;;;;21.75;4.53;;;;;;;3.77;77.83;102885.38;5026821;28;20017;-76
2022/01/30 08:25:20;;;;;;;20.83;4.57;;;;;;;3.81;77.68;102890.63;5026221;28;20091;-76
2022/01/30 08:27:46;;;;;;;22.23;4.03;;;;;;;3.87;77.46;102894.13;5026993;28;20032;-75
2022/01/30 08:30:11;;;;;;;23.30;4.32;;;;;;;3.90;77.24;102896.75;5027823;28;20393;-75
2022/01/30 08:32:41;;;;;;;20.40;4.50;;;;;;;3.93;77.46;102894.94;5029966;28;20030;-75
2022/01/30 08:35:08;;;;;;;22.67;4.07;;;;;;;3.96;77.34;102896.69;5028230;28;20021;-75
2022/01/30 08:37:35;;;;;;;15.88;3.92;;;;;;;4.01;77.79;102894.81;5027753;28;20032;-75
2022/01/30 08:40:11;;;;;;;20.88;4.60;;;;;;;4.10;77.03;102897.38;5026091;28;20021;-75
2022/01/30 08:42:36;;;;;;;24.75;4.93;;;;;;;4.20;76.36;102895.47;5027159;28;20391;-75
2022/01/30 08:45:03;;;;;;;24.73;4.63;;;;;;;4.29;76.20;102894.44;5026891;28;20021;-75
2022/01/30 08:47:28;;;;;;;28.02;4.75;;;;;;;4.34;76.20;102896.16;5026691;28;20043;-75
2022/01/30 08:49:54;;;;;;;20.02;4.18;;;;;;;4.38;75.92;102900.53;5043110;28;20492;-75
2022/01/30 08:52:19;;;;;;;22.88;4.18;;;;;;;4.42;76.11;102904.03;5027386;28;20102;-74
2022/01/30 08:54:52;;;;;;;24.52;5.65;;;;;;;4.46;76.07;102900.41;5024898;28;20044;-74
2022/01/30 08:57:17;;;;;;;19.98;4.13;;;;;;;4.52;75.78;102897.69;5036476;28;20128;-74
2022/01/30 08:59:42;;;;;;;23.88;4.80;;;;;;;4.60;74.86;102896.66;5038580;28;20692;-74
2022/01/30 09:02:08;;;;;;;23.73;5.00;;;;;;;4.63;74.14;102893.97;5034382;28;20025;-74
2022/01/30 09:04:33;;;;;;;24.50;4.90;;;;;;;4.68;73.78;102897.44;5030005;28;20035;-74
2022/01/30 09:06:59;;;;;;;19.27;4.78;;;;;;;4.70;73.98;102901.84;5027771;28;20029;-74
2022/01/30 09:09:25;;;;;;;17.83;4.07;;;;;;;4.71;73.22;102902.72;5027455;28;20037;-74
2022/01/30 09:11:50;;;;;;;25.73;5.35;;;;;;;4.75;74.05;102909.75;5029565;28;20025;-74
2022/01/30 09:14:16;;;;;;;24.25;4.32;;;;;;;4.79;74.11;102915.91;5027508;28;20045;-75
2022/01/30 09:16:42;;;;;;;29.50;4.53;;;;;;;4.80;74.08;102913.25;5029014;28;20037;-74
2022/01/30 09:19:07;;;;;;;14.60;3.58;;;;;;;4.84;73.71;102925.59;5023474;28;20136;-74
2022/01/30 09:21:33;;;;;;;25.05;4.93;;;;;;;4.87;73.29;102928.19;5027982;28;20478;-74
2022/01/30 09:23:58;;;;;;;23.40;4.97;;;;;;;4.93;72.78;102937.00;5033049;28;20537;-75
2022/01/30 09:26:24;;;;;;;20.85;4.72;;;;;;;4.99;72.67;102928.91;5028391;28;20684;-74
2022/01/30 09:28:49;;;;;;;27.33;5.30;;;;;;;5.10;72.95;102931.44;5036027;28;20453;-74
2022/01/30 09:31:14;;;;;;;29.02;4.95;;;;;;;5.18;71.89;102929.47;5027540;28;20097;-74
2022/01/30 09:33:40;;;;;;;22.98;4.60;;;;;;;5.27;72.31;102925.78;5026586;28;20025;-74
2022/01/30 09:36:06;;;;;;;18.60;4.47;;;;;;;5.34;70.96;102930.09;5030622;28;20025;-74
2022/01/30 09:38:31;;;;;;;26.35;5.40;;;;;;;5.40;70.32;102937.97;5034749;28;20393;-74
2022/01/30 09:40:58;;;;;;;38.97;6.22;;;;;;;5.43;70.78;102946.81;5027591;28;20037;-74
2022/01/30 09:43:23;;;;;;;28.88;5.03;;;;;;;5.46;70.58;102951.22;5027983;28;20132;-74
2022/01/30 09:45:51;;;;;;;18.23;4.60;;;;;;;5.52;70.85;102945.78;5024313;28;20030;-74
2022/01/30 09:48:18;;;;;;;20.85;5.07;;;;;;;5.53;69.09;102950.19;5026729;28;20496;-74
2022/01/30 09:50:43;;;;;;;27.50;6.03;;;;;;;5.56;68.66;102952.81;5023372;28;20093;-74
2022/01/30 09:53:09;;;;;;;24.45;5.38;;;;;;;5.60;68.18;102958.97;5026806;28;20159;-74
2022/01/30 09:55:34;;;;;;;19.75;4.53;;;;;;;5.62;68.57;102961.59;5023767;28;20831;-74
2022/01/30 09:58:00;;;;;;;21.92;4.82;;;;;;;5.64;68.93;102950.00;5025620;28;20112;-74
2022/01/30 10:00:25;;;;;;;26.30;5.90;;;;;;;5.67;68.31;102957.94;5024528;28;20052;-74
2022/01/30 10:02:50;;;;;;;22.60;4.82;;;;;;;5.70;68.83;102954.34;5029984;28;20025;-74
2022/01/30 10:05:17;;;;;;;17.73;4.47;;;;;;;5.70;68.82;102965.03;5020648;28;20673;-74
2022/01/30 10:07:50;;;;;;;27.40;5.32;;;;;;;5.74;68.76;102969.38;5025199;28;20036;-74
2022/01/30 10:10:17;;;;;;;26.45;5.32;;;;;;;5.78;67.92;102974.63;5028259;28;20079;-74
2022/01/30 10:13:09;;;;;;;22.02;4.72;;;;;;;5.86;69.57;102974.50;5025540;28;20519;-74
2022/01/30 10:16:03;;;;;;;23.90;4.80;;;;;;;5.92;67.87;102986.84;5020883;28;20037;-74
2022/01/30 10:18:32;;;;;;;23.20;5.72;;;;;;;5.91;68.09;102985.06;5021308;28;20049;-74
2022/01/30 10:20:57;;;;;;;22.63;4.75;;;;;;;5.95;68.33;102992.97;5020880;28;20037;-74
2022/01/30 10:23:36;;;;;;;22.95;4.68;;;;;;;6.03;69.07;102986.66;5025953;28;20086;-74
2022/01/30 10:26:08;;;;;;;24.70;5.00;;;;;;;6.05;67.96;102982.19;5021936;28;20037;-74
2022/01/30 10:28:34;;;;;;;26.95;5.13;;;;;;;6.06;69.06;102978.56;5020149;28;20565;-74
2022/01/30 10:31:05;;;;;;;27.92;5.57;;;;;;;6.10;68.69;102991.81;5021503;28;20754;-73
2022/01/30 10:33:39;;;;;;;25.27;6.05;;;;;;;6.18;68.04;102989.03;5013942;28;20037;-73
2022/01/30 10:36:10;;;;;;;23.70;5.65;;;;;;;6.22;67.33;102981.81;5018010;28;20073;-73
2022/01/30 10:38:41;;;;;;;23.42;6.15;;;;;;;6.26;68.05;102981.72;5020402;28;20140;-73
2022/01/30 10:41:31;;;;;;;20.23;5.22;;;;;;;6.32;68.14;102979.84;5019331;28;20036;-73
2022/01/30 10:44:05;;;;;;;27.08;5.90;;;;;;;6.36;67.44;102981.53;5019670;28;20367;-73
2022/01/30 10:46:44;;;;;;;29.10;5.47;;;;;;;6.41;66.94;102982.31;5019515;28;20438;-74
2022/01/30 10:49:21;;;;;;;22.70;4.88;;;;;;;6.43;67.51;102973.34;5016288;28;20528;-73
2022/01/30 10:51:54;;;;;;;28.00;6.13;;;;;;;6.43;67.15;102973.34;5017034;28;20041;-73
2022/01/30 10:54:20;;;;;;;24.77;5.45;;;;;;;6.43;67.06;102972.50;5015898;28;20025;-73
2022/01/30 10:56:46;;;;;;;24.55;5.00;;;;;;;6.41;67.37;102964.50;5017010;28;20046;-73
2022/01/30 10:59:19;;;;;;;29.58;5.72;;;;;;;6.45;68.70;102976.84;5018425;28;20029;-74
2022/01/30 11:01:47;;;;;;;23.15;4.88;;;;;;;6.46;67.01;102983.97;5016909;28;20043;-74
2022/01/30 11:04:31;;;;;;;26.75;6.10;;;;;;;6.48;66.68;102975.91;5017951;28;20045;-74
2022/01/30 11:07:02;;;;;;;29.48;5.93;;;;;;;6.44;64.55;102971.56;5016201;28;20072;-73
2022/01/30 11:09:34;;;;;;;26.75;5.72;;;;;;;6.41;65.34;102966.28;5015939;28;20041;-73
2022/01/30 11:12:06;;;;;;;23.17;5.15;;;;;;;6.35;65.32;102959.28;5015148;28;20036;-73
2022/01/30 11:15:05;;;;;;;27.30;7.18;;;;;;;6.31;65.07;102952.28;5018593;28;20099;-73
2022/01/30 11:17:26;;;;;;;23.90;5.25;;;;;;;6.29;66.05;102944.25;5020172;28;20515;-74
2022/01/30 11:19:53;;;;;;;25.88;5.55;;;;;;;6.32;66.41;102943.31;5018537;28;20025;-74
2022/01/30 11:22:20;;;;;;;26.88;5.57;;;;;;;6.33;66.05;102938.88;5018386;28;20111;-74
2022/01/30 11:24:48;;;;;;;20.80;5.22;;;;;;;6.38;66.24;102937.84;5019237;28;20355;-74
2022/01/30 11:27:18;;;;;;;24.38;5.53;;;;;;;6.49;66.46;102940.28;5023809;28;20033;-73
2022/01/30 11:29:45;;;;;;;25.67;5.13;;;;;;;6.63;66.01;102947.97;5020630;28;20477;-73
2022/01/30 11:32:11;;;;;;;25.38;5.15;;;;;;;6.70;63.85;102943.38;5016522;28;20029;-73
2022/01/30 11:34:38;;;;;;;23.80;5.20;;;;;;;6.74;63.93;102937.94;5016649;28;20037;-73
2022/01/30 11:37:05;;;;;;;27.88;6.20;;;;;;;6.76;63.72;102935.22;5018037;28;20956;-74
2022/01/30 11:39:30;;;;;;;26.10;5.70;;;;;;;6.76;63.83;102937.88;5021753;28;20052;-75
2022/01/30 11:42:13;;;;;;;21.75;4.85;;;;;;;6.77;64.33;102942.31;5016571;28;20029;-73
2022/01/30 11:44:40;;;;;;;23.70;5.57;;;;;;;6.75;62.47;102930.78;5019727;28;20179;-73
2022/01/30 11:47:07;;;;;;;22.30;4.75;;;;;;;6.76;62.81;102929.88;5016078;28;20037;-73
2022/01/30 11:49:41;;;;;;;24.58;4.93;;;;;;;6.80;62.98;102934.22;5021701;28;20454;-73
2022/01/30 11:52:09;;;;;;;18.83;4.78;;;;;;;6.90;64.05;102926.88;5018605;28;20128;-74
2022/01/30 11:54:53;;;;;;;24.33;4.43;;;;;;;6.96;61.79;102929.41;5017085;28;20522;-74
2022/01/30 11:57:21;;;;;;;27.70;4.95;;;;;;;6.97;60.59;102921.34;5019607;28;20051;-74
2022/01/30 11:59:50;;;;;;;24.75;5.65;;;;;;;7.04;61.03;102923.84;5019932;28;20115;-74
2022/01/30 12:02:28;;;;;;;19.02;3.97;;;;;;;7.10;60.50;102926.38;5020733;28;20120;-74
2022/01/30 12:05:05;;;;;;;22.55;5.47;;;;;;;7.19;61.12;102926.16;5019480;28;20722;-74
2022/01/30 12:07:47;;;;;;;21.65;4.82;;;;;;;7.20;60.15;102922.53;5020989;28;20044;-74
2022/01/30 12:10:21;;;;;;;22.17;4.25;;;;;;;7.19;60.57;102926.16;5018450;28;20033;-74
2022/01/30 12:13:02;;;;;;;20.98;4.38;;;;;;;7.14;60.32;102933.41;5018821;28;20045;-73
2022/01/30 12:15:34;;;;;;;28.33;5.75;;;;;;;7.02;60.40;102926.56;5017857;28;20040;-74
2022/01/30 12:18:00;;;;;;;19.08;4.75;;;;;;;6.94;60.24;102924.09;5050582;28;20045;-73